sensor_id;sensor_type;location;lat;lon;timestamp;pressure;altitude;pressure_sealevel;temperature;humidity
2785;BME280;57944;48.722;9.316;2023-05-10T00:01:38;97422.47;;;13.68;100.00
2785;BME280;57944;48.722;9.316;2023-05-10T00:04:08;97418.25;;;13.61;100.00
2785;BME280;57944;48.722;9.316;2023-05-10T00:06:38;97415.72;;;13.50;100.00
2785;BME280;57944;48.722;9.316;2023-05-10T00:09:08;97421.16;;;13.53;100.00
2785;BME280;57944;48.722;9.316;2023-05-10T00:11:38;97415.84;;;13.55;100.00
2785;BME280;57944;48.722;9.316;2023-05-10T00:14:11;97421.72;;;13.55;100.00
2785;BME280;57944;48.722;9.316;2023-05-10T00:16:41;97416.94;;;13.59;100.00
2785;BME280;57944;48.722;9.316;2023-05-10T00:19:11;97425.06;;;13.56;100.00
2785;BME280;57944;48.722;9.316;2023-05-10T00:21:42;97428.31;;;13.51;100.00
2785;BME280;57944;48.722;9.316;2023-05-10T00:24:12;97430.75;;;13.46;100.00
2785;BME280;57944;48.722;9.316;2023-05-10T00:26:42;97428.41;;;13.45;100.00
2785;BME280;57944;48.722;9.316;2023-05-10T00:29:14;97429.97;;;13.46;100.00
2785;BME280;57944;48.722;9.316;2023-05-10T00:31:44;97433.66;;;13.38;100.00
2785;BME280;57944;48.722;9.316;2023-05-10T00:34:14;97430.19;;;13.21;100.00
2785;BME280;57944;48.722;9.316;2023-05-10T00:36:44;97436.16;;;13.14;100.00
2785;BME280;57944;48.722;9.316;2023-05-10T00:39:14;97436.06;;;13.09;100.00
2785;BME280;57944;48.722;9.316;2023-05-10T00:41:44;97435.81;;;12.99;100.00
2785;BME280;57944;48.722;9.316;2023-05-10T00:44:18;97441.25;;;13.03;100.00
2785;BME280;57944;48.722;9.316;2023-05-10T00:46:48;97439.91;;;13.00;100.00
2785;BME280;57944;48.722;9.316;2023-05-10T00:49:19;97444.72;;;13.08;100.00
2785;BME280;57944;48.722;9.316;2023-05-10T00:51:50;97440.81;;;13.06;100.00
2785;BME280;57944;48.722;9.316;2023-05-10T00:54:20;97442.81;;;13.04;100.00
2785;BME280;57944;48.722;9.316;2023-05-10T00:56:50;97450.72;;;13.02;100.00
2785;BME280;57944;48.722;9.316;2023-05-10T00:59:23;97455.72;;;12.97;100.00
2785;BME280;57944;48.722;9.316;2023-05-10T01:01:53;97453.91;;;12.86;100.00
2785;BME280;57944;48.722;9.316;2023-05-10T01:04:23;97459.00;;;12.74;100.00
2785;BME280;57944;48.722;9.316;2023-05-10T01:06:54;97460.66;;;12.68;100.00
2785;BME280;57944;48.722;9.316;2023-05-10T01:09:24;97458.75;;;12.64;100.00
2785;BME280;57944;48.722;9.316;2023-05-10T01:11:56;97457.38;;;12.61;100.00
2785;BME280;57944;48.722;9.316;2023-05-10T01:14:29;97462.47;;;12.49;100.00
2785;BME280;57944;48.722;9.316;2023-05-10T01:17:00;97459.72;;;12.51;100.00
2785;BME280;57944;48.722;9.316;2023-05-10T01:19:31;97459.78;;;12.44;100.00
2785;BME280;57944;48.722;9.316;2023-05-10T01:22:16;97464.13;;;12.44;100.00
2785;BME280;57944;48.722;9.316;2023-05-10T01:25:11;97470.16;;;12.31;100.00
2785;BME280;57944;48.722;9.316;2023-05-10T01:31:06;97475.88;;;12.45;100.00
2785;BME280;57944;48.722;9.316;2023-05-10T01:33:43;97475.34;;;12.43;100.00
2785;BME280;57944;48.722;9.316;2023-05-10T01:36:22;97485.78;;;12.41;100.00
2785;BME280;57944;48.722;9.316;2023-05-10T01:39:01;97483.00;;;12.43;100.00
2785;BME280;57944;48.722;9.316;2023-05-10T01:41:37;97487.13;;;12.44;100.00
2785;BME280;57944;48.722;9.316;2023-05-10T01:44:16;97492.66;;;12.41;100.00
2785;BME280;57944;48.722;9.316;2023-05-10T01:46:54;97489.38;;;12.34;100.00
2785;BME280;57944;48.722;9.316;2023-05-10T01:49:32;97490.19;;;12.34;100.00
2785;BME280;57944;48.722;9.316;2023-05-10T01:52:09;97494.88;;;12.37;100.00
2785;BME280;57944;48.722;9.316;2023-05-10T01:54:44;97501.09;;;12.41;100.00
2785;BME280;57944;48.722;9.316;2023-05-10T01:57:16;97494.06;;;12.37;100.00
2785;BME280;57944;48.722;9.316;2023-05-10T01:59:50;97495.38;;;12.27;100.00
2785;BME280;57944;48.722;9.316;2023-05-10T02:02:21;97502.25;;;12.27;100.00
2785;BME280;57944;48.722;9.316;2023-05-10T02:04:55;97506.00;;;12.24;100.00
2785;BME280;57944;48.722;9.316;2023-05-10T02:07:27;97511.91;;;12.25;100.00
2785;BME280;57944;48.722;9.316;2023-05-10T02:09:58;97514.25;;;12.26;100.00
2785;BME280;57944;48.722;9.316;2023-05-10T02:12:29;97510.13;;;12.25;100.00
2785;BME280;57944;48.722;9.316;2023-05-10T02:15:05;97513.53;;;12.19;100.00
2785;BME280;57944;48.722;9.316;2023-05-10T02:17:37;97518.28;;;12.16;100.00
2785;BME280;57944;48.722;9.316;2023-05-10T02:20:12;97514.59;;;12.12;100.00
2785;BME280;57944;48.722;9.316;2023-05-10T02:22:43;97511.91;;;12.06;100.00
2785;BME280;57944;48.722;9.316;2023-05-10T02:25:15;97518.38;;;12.09;100.00
2785;BME280;57944;48.722;9.316;2023-05-10T02:27:48;97517.16;;;12.12;100.00
2785;BME280;57944;48.722;9.316;2023-05-10T02:30:18;97532.47;;;12.12;100.00
2785;BME280;57944;48.722;9.316;2023-05-10T02:32:50;97529.72;;;12.13;100.00
2785;BME280;57944;48.722;9.316;2023-05-10T02:35:24;97528.16;;;12.12;100.00
2785;BME280;57944;48.722;9.316;2023-05-10T02:37:56;97529.72;;;12.13;100.00
2785;BME280;57944;48.722;9.316;2023-05-10T02:40:30;97531.84;;;12.16;100.00
2785;BME280;57944;48.722;9.316;2023-05-10T02:43:01;97530.06;;;12.17;100.00
2785;BME280;57944;48.722;9.316;2023-05-10T02:45:32;97527.31;;;12.18;100.00
2785;BME280;57944;48.722;9.316;2023-05-10T02:48:06;97535.94;;;12.17;100.00
2785;BME280;57944;48.722;9.316;2023-05-10T02:50:39;97530.16;;;12.10;100.00
2785;BME280;57944;48.722;9.316;2023-05-10T02:53:15;97523.47;;;12.09;100.00
2785;BME280;57944;48.722;9.316;2023-05-10T02:55:50;97539.34;;;12.11;100.00
2785;BME280;57944;48.722;9.316;2023-05-10T02:58:21;97533.97;;;12.19;100.00
2785;BME280;57944;48.722;9.316;2023-05-10T03:00:51;97530.78;;;12.24;100.00
2785;BME280;57944;48.722;9.316;2023-05-10T03:03:21;97532.13;;;12.26;100.00
2785;BME280;57944;48.722;9.316;2023-05-10T03:05:54;97532.28;;;12.32;100.00
2785;BME280;57944;48.722;9.316;2023-05-10T03:08:25;97528.28;;;12.36;100.00
2785;BME280;57944;48.722;9.316;2023-05-10T03:11:05;97534.66;;;12.45;100.00
2785;BME280;57944;48.722;9.316;2023-05-10T03:13:44;97533.97;;;12.38;100.00
2785;BME280;57944;48.722;9.316;2023-05-10T03:16:21;97536.69;;;12.43;100.00
2785;BME280;57944;48.722;9.316;2023-05-10T03:18:58;97542.00;;;12.41;100.00
2785;BME280;57944;48.722;9.316;2023-05-10T03:21:37;97542.06;;;12.35;100.00
2785;BME280;57944;48.722;9.316;2023-05-10T03:24:12;97545.19;;;12.37;100.00
2785;BME280;57944;48.722;9.316;2023-05-10T03:26:45;97547.19;;;12.35;100.00
2785;BME280;57944;48.722;9.316;2023-05-10T03:29:17;97548.72;;;12.36;100.00
2785;BME280;57944;48.722;9.316;2023-05-10T03:31:48;97545.59;;;12.34;100.00
2785;BME280;57944;48.722;9.316;2023-05-10T03:34:23;97548.31;;;12.39;100.00
2785;BME280;57944;48.722;9.316;2023-05-10T03:36:56;97545.06;;;12.32;100.00
2785;BME280;57944;48.722;9.316;2023-05-10T03:39:29;97548.72;;;12.36;100.00
2785;BME280;57944;48.722;9.316;2023-05-10T03:42:01;97560.50;;;12.37;100.00
2785;BME280;57944;48.722;9.316;2023-05-10T03:44:31;97559.31;;;12.39;100.00
2785;BME280;57944;48.722;9.316;2023-05-10T03:47:00;97564.78;;;12.43;100.00
2785;BME280;57944;48.722;9.316;2023-05-10T03:49:30;97567.47;;;12.48;100.00
2785;BME280;57944;48.722;9.316;2023-05-10T03:52:04;97560.38;;;12.50;100.00
2785;BME280;57944;48.722;9.316;2023-05-10T03:54:34;97553.28;;;12.52;100.00
2785;BME280;57944;48.722;9.316;2023-05-10T03:57:04;97562.72;;;12.51;100.00
2785;BME280;57944;48.722;9.316;2023-05-10T03:59:34;97562.06;;;12.56;100.00
2785;BME280;57944;48.722;9.316;2023-05-10T04:02:04;97556.41;;;12.54;100.00
2785;BME280;57944;48.722;9.316;2023-05-10T04:04:35;97566.06;;;12.52;100.00
2785;BME280;57944;48.722;9.316;2023-05-10T04:07:08;97565.47;;;12.50;100.00
2785;BME280;57944;48.722;9.316;2023-05-10T04:09:39;97571.75;;;12.54;100.00
2785;BME280;57944;48.722;9.316;2023-05-10T04:12:09;97559.66;;;12.61;100.00
2785;BME280;57944;48.722;9.316;2023-05-10T04:14:39;97564.69;;;12.49;100.00
2785;BME280;57944;48.722;9.316;2023-05-10T04:17:09;97561.81;;;12.46;100.00
2785;BME280;57944;48.722;9.316;2023-05-10T04:19:39;97559.44;;;12.44;100.00
2785;BME280;57944;48.722;9.316;2023-05-10T04:22:12;97556.84;;;12.51;100.00
2785;BME280;57944;48.722;9.316;2023-05-10T04:24:43;97563.28;;;12.35;100.00
2785;BME280;57944;48.722;9.316;2023-05-10T04:27:12;97565.91;;;12.28;100.00
2785;BME280;57944;48.722;9.316;2023-05-10T04:29:42;97570.09;;;12.23;100.00
2785;BME280;57944;48.722;9.316;2023-05-10T04:32:12;97569.72;;;12.19;100.00
2785;BME280;57944;48.722;9.316;2023-05-10T04:34:43;97576.00;;;12.23;100.00
2785;BME280;57944;48.722;9.316;2023-05-10T04:37:15;97576.28;;;12.34;100.00
2785;BME280;57944;48.722;9.316;2023-05-10T04:39:46;97570.00;;;12.48;100.00
2785;BME280;57944;48.722;9.316;2023-05-10T04:42:16;97563.28;;;12.53;100.00
2785;BME280;57944;48.722;9.316;2023-05-10T04:44:46;97567.41;;;12.55;100.00
2785;BME280;57944;48.722;9.316;2023-05-10T04:47:16;97578.75;;;12.59;100.00
2785;BME280;57944;48.722;9.316;2023-05-10T04:49:46;97576.03;;;12.53;100.00
2785;BME280;57944;48.722;9.316;2023-05-10T04:52:18;97580.03;;;12.49;100.00
2785;BME280;57944;48.722;9.316;2023-05-10T04:54:48;97581.81;;;12.49;100.00
2785;BME280;57944;48.722;9.316;2023-05-10T04:57:18;97580.81;;;12.50;100.00
2785;BME280;57944;48.722;9.316;2023-05-10T04:59:48;97586.13;;;12.67;100.00
2785;BME280;57944;48.722;9.316;2023-05-10T05:02:18;97586.75;;;12.81;100.00
2785;BME280;57944;48.722;9.316;2023-05-10T05:04:48;97588.59;;;12.92;100.00
2785;BME280;57944;48.722;9.316;2023-05-10T05:07:21;97591.56;;;12.89;100.00
2785;BME280;57944;48.722;9.316;2023-05-10T05:09:51;97595.28;;;12.93;100.00
2785;BME280;57944;48.722;9.316;2023-05-10T05:12:21;97597.94;;;12.98;100.00
2785;BME280;57944;48.722;9.316;2023-05-10T05:14:51;97594.47;;;13.23;100.00
2785;BME280;57944;48.722;9.316;2023-05-10T05:17:21;97600.91;;;13.44;100.00
2785;BME280;57944;48.722;9.316;2023-05-10T05:19:51;97601.06;;;13.60;100.00
2785;BME280;57944;48.722;9.316;2023-05-10T05:22:23;97603.19;;;13.75;100.00
2785;BME280;57944;48.722;9.316;2023-05-10T05:24:54;97613.34;;;13.82;100.00
2785;BME280;57944;48.722;9.316;2023-05-10T05:27:25;97601.84;;;13.84;100.00
2785;BME280;57944;48.722;9.316;2023-05-10T05:29:55;97618.69;;;13.92;100.00
2785;BME280;57944;48.722;9.316;2023-05-10T05:32:26;97612.66;;;13.98;100.00
2785;BME280;57944;48.722;9.316;2023-05-10T05:34:56;97615.91;;;14.05;100.00
2785;BME280;57944;48.722;9.316;2023-05-10T05:37:29;97613.69;;;13.97;100.00
2785;BME280;57944;48.722;9.316;2023-05-10T05:39:59;97617.94;;;14.15;100.00
2785;BME280;57944;48.722;9.316;2023-05-10T05:42:29;97611.66;;;14.23;100.00
2785;BME280;57944;48.722;9.316;2023-05-10T05:45:00;97620.94;;;14.24;100.00
2785;BME280;57944;48.722;9.316;2023-05-10T05:47:30;97623.59;;;14.29;100.00
2785;BME280;57944;48.722;9.316;2023-05-10T05:50:00;97623.25;;;14.25;100.00
2785;BME280;57944;48.722;9.316;2023-05-10T05:52:32;97629.84;;;14.33;100.00
2785;BME280;57944;48.722;9.316;2023-05-10T05:55:03;97631.50;;;14.27;100.00
2785;BME280;57944;48.722;9.316;2023-05-10T05:57:33;97637.19;;;14.41;100.00
2785;BME280;57944;48.722;9.316;2023-05-10T06:00:06;97633.19;;;14.22;100.00
2785;BME280;57944;48.722;9.316;2023-05-10T06:02:39;97631.41;;;14.11;100.00
2785;BME280;57944;48.722;9.316;2023-05-10T06:05:09;97635.88;;;14.27;100.00
2785;BME280;57944;48.722;9.316;2023-05-10T06:07:44;97635.97;;;14.44;100.00
2785;BME280;57944;48.722;9.316;2023-05-10T06:10:13;97639.53;;;14.31;100.00
2785;BME280;57944;48.722;9.316;2023-05-10T06:12:43;97634.41;;;14.66;100.00
2785;BME280;57944;48.722;9.316;2023-05-10T06:15:13;97637.91;;;14.89;100.00
2785;BME280;57944;48.722;9.316;2023-05-10T06:17:44;97643.19;;;14.82;100.00
2785;BME280;57944;48.722;9.316;2023-05-10T06:20:16;97651.25;;;15.03;100.00
2785;BME280;57944;48.722;9.316;2023-05-10T06:22:48;97651.09;;;15.21;100.00
2785;BME280;57944;48.722;9.316;2023-05-10T06:25:18;97654.69;;;15.37;100.00
2785;BME280;57944;48.722;9.316;2023-05-10T06:27:48;97653.16;;;15.53;100.00
2785;BME280;57944;48.722;9.316;2023-05-10T06:30:23;97654.19;;;15.23;100.00
2785;BME280;57944;48.722;9.316;2023-05-10T06:32:56;97661.25;;;15.16;100.00
2785;BME280;57944;48.722;9.316;2023-05-10T06:35:26;97661.63;;;15.08;100.00
2785;BME280;57944;48.722;9.316;2023-05-10T06:37:59;97663.63;;;15.34;100.00
2785;BME280;57944;48.722;9.316;2023-05-10T06:40:28;97652.03;;;15.60;100.00
2785;BME280;57944;48.722;9.316;2023-05-10T06:42:59;97665.53;;;15.84;100.00
2785;BME280;57944;48.722;9.316;2023-05-10T06:45:29;97662.34;;;15.65;100.00
2785;BME280;57944;48.722;9.316;2023-05-10T06:47:59;97664.84;;;15.44;100.00
2785;BME280;57944;48.722;9.316;2023-05-10T06:50:29;97670.03;;;15.49;100.00
2785;BME280;57944;48.722;9.316;2023-05-10T06:53:02;97667.13;;;15.28;100.00
2785;BME280;57944;48.722;9.316;2023-05-10T06:55:32;97671.88;;;15.36;100.00
2785;BME280;57944;48.722;9.316;2023-05-10T06:58:02;97672.75;;;15.42;100.00
2785;BME280;57944;48.722;9.316;2023-05-10T07:00:33;97681.31;;;15.48;100.00
2785;BME280;57944;48.722;9.316;2023-05-10T07:03:06;97675.94;;;15.32;100.00
2785;BME280;57944;48.722;9.316;2023-05-10T07:05:36;97666.38;;;15.45;100.00
2785;BME280;57944;48.722;9.316;2023-05-10T07:08:08;97675.47;;;15.35;100.00
2785;BME280;57944;48.722;9.316;2023-05-10T07:10:38;97674.72;;;15.23;100.00
2785;BME280;57944;48.722;9.316;2023-05-10T07:13:08;97675.31;;;15.42;100.00
2785;BME280;57944;48.722;9.316;2023-05-10T07:15:38;97668.50;;;15.48;100.00
2785;BME280;57944;48.722;9.316;2023-05-10T07:18:09;97677.94;;;15.30;100.00
2785;BME280;57944;48.722;9.316;2023-05-10T07:20:39;97676.25;;;15.07;100.00
2785;BME280;57944;48.722;9.316;2023-05-10T07:23:12;97674.25;;;14.97;100.00
2785;BME280;57944;48.722;9.316;2023-05-10T07:25:42;97667.75;;;15.07;100.00
2785;BME280;57944;48.722;9.316;2023-05-10T07:28:14;97671.16;;;15.53;100.00
2785;BME280;57944;48.722;9.316;2023-05-10T07:30:45;97677.03;;;15.08;100.00
2785;BME280;57944;48.722;9.316;2023-05-10T07:33:15;97680.88;;;15.51;100.00
2785;BME280;57944;48.722;9.316;2023-05-10T07:35:45;97692.63;;;15.92;100.00
2785;BME280;57944;48.722;9.316;2023-05-10T07:38:18;97680.47;;;16.60;100.00
2785;BME280;57944;48.722;9.316;2023-05-10T07:40:48;97680.72;;;17.19;100.00
2785;BME280;57944;48.722;9.316;2023-05-10T07:43:18;97681.13;;;17.65;100.00
2785;BME280;57944;48.722;9.316;2023-05-10T07:45:48;97687.50;;;17.85;100.00
2785;BME280;57944;48.722;9.316;2023-05-10T07:48:22;97691.66;;;18.23;100.00
2785;BME280;57944;48.722;9.316;2023-05-10T07:50:51;97686.28;;;18.25;100.00
2785;BME280;57944;48.722;9.316;2023-05-10T07:53:27;97690.53;;;18.51;100.00
2785;BME280;57944;48.722;9.316;2023-05-10T07:55:58;97686.94;;;18.52;100.00
2785;BME280;57944;48.722;9.316;2023-05-10T07:58:28;97692.38;;;18.56;100.00
2785;BME280;57944;48.722;9.316;2023-05-10T08:00:58;97688.69;;;18.04;100.00
2785;BME280;57944;48.722;9.316;2023-05-10T08:03:28;97688.25;;;18.13;100.00
2785;BME280;57944;48.722;9.316;2023-05-10T08:05:58;97692.66;;;18.60;100.00
2785;BME280;57944;48.722;9.316;2023-05-10T08:08:31;97690.28;;;18.48;100.00
2785;BME280;57944;48.722;9.316;2023-05-10T08:11:01;97696.13;;;18.38;100.00
2785;BME280;57944;48.722;9.316;2023-05-10T08:13:31;97690.22;;;17.73;100.00
2785;BME280;57944;48.722;9.316;2023-05-10T08:16:01;97685.13;;;17.51;100.00
2785;BME280;57944;48.722;9.316;2023-05-10T08:18:31;97693.91;;;17.50;100.00
2785;BME280;57944;48.722;9.316;2023-05-10T08:21:01;97694.19;;;17.81;100.00
2785;BME280;57944;48.722;9.316;2023-05-10T08:23:33;97695.94;;;17.48;100.00
2785;BME280;57944;48.722;9.316;2023-05-10T08:26:03;97692.66;;;17.85;100.00
2785;BME280;57944;48.722;9.316;2023-05-10T08:28:33;97694.47;;;17.84;100.00
2785;BME280;57944;48.722;9.316;2023-05-10T08:31:04;97690.63;;;17.87;100.00
2785;BME280;57944;48.722;9.316;2023-05-10T08:33:34;97692.59;;;18.07;100.00
2785;BME280;57944;48.722;9.316;2023-05-10T08:36:05;97691.53;;;17.22;100.00
2785;BME280;57944;48.722;9.316;2023-05-10T08:38:37;97693.16;;;17.82;100.00
2785;BME280;57944;48.722;9.316;2023-05-10T08:41:07;97694.25;;;17.91;100.00
2785;BME280;57944;48.722;9.316;2023-05-10T08:43:38;97694.56;;;18.32;100.00
2785;BME280;57944;48.722;9.316;2023-05-10T08:46:09;97697.78;;;18.12;100.00
2785;BME280;57944;48.722;9.316;2023-05-10T08:48:40;97696.47;;;18.09;100.00
2785;BME280;57944;48.722;9.316;2023-05-10T08:51:13;97697.06;;;18.22;100.00
2785;BME280;57944;48.722;9.316;2023-05-10T08:53:46;97688.59;;;18.26;100.00
2785;BME280;57944;48.722;9.316;2023-05-10T08:56:16;97701.19;;;18.65;100.00
2785;BME280;57944;48.722;9.316;2023-05-10T08:58:47;97703.25;;;19.16;100.00
2785;BME280;57944;48.722;9.316;2023-05-10T09:01:18;97709.41;;;19.05;100.00
2785;BME280;57944;48.722;9.316;2023-05-10T09:03:49;97717.59;;;18.86;100.00
2785;BME280;57944;48.722;9.316;2023-05-10T09:06:20;97716.03;;;18.85;100.00
2785;BME280;57944;48.722;9.316;2023-05-10T09:08:53;97718.72;;;19.11;99.71
2785;BME280;57944;48.722;9.316;2023-05-10T09:11:23;97714.91;;;19.29;98.99
2785;BME280;57944;48.722;9.316;2023-05-10T09:13:56;97719.72;;;19.00;100.00
2785;BME280;57944;48.722;9.316;2023-05-10T09:16:26;97717.41;;;18.56;100.00
2785;BME280;57944;48.722;9.316;2023-05-10T09:18:56;97714.91;;;18.71;100.00
2785;BME280;57944;48.722;9.316;2023-05-10T09:21:26;97709.91;;;18.54;100.00
2785;BME280;57944;48.722;9.316;2023-05-10T09:24:02;97716.31;;;17.50;100.00
2785;BME280;57944;48.722;9.316;2023-05-10T09:26:32;97715.84;;;17.31;100.00
2785;BME280;57944;48.722;9.316;2023-05-10T09:29:03;97720.47;;;17.29;100.00
2785;BME280;57944;48.722;9.316;2023-05-10T09:31:44;97719.50;;;17.35;100.00
2785;BME280;57944;48.722;9.316;2023-05-10T09:34:18;97722.50;;;17.05;100.00
2785;BME280;57944;48.722;9.316;2023-05-10T09:36:53;97718.06;;;16.61;100.00
2785;BME280;57944;48.722;9.316;2023-05-10T09:39:36;97720.66;;;16.61;100.00
2785;BME280;57944;48.722;9.316;2023-05-10T09:42:07;97720.31;;;16.74;100.00
2785;BME280;57944;48.722;9.316;2023-05-10T09:44:38;97721.91;;;16.59;100.00
2785;BME280;57944;48.722;9.316;2023-05-10T09:47:10;97719.91;;;16.27;100.00
2785;BME280;57944;48.722;9.316;2023-05-10T09:49:41;97727.19;;;15.84;100.00
2785;BME280;57944;48.722;9.316;2023-05-10T09:52:11;97735.69;;;15.16;100.00
2785;BME280;57944;48.722;9.316;2023-05-10T09:54:52;97737.22;;;14.53;100.00
2785;BME280;57944;48.722;9.316;2023-05-10T09:57:24;97734.88;;;14.09;100.00
2785;BME280;57944;48.722;9.316;2023-05-10T09:59:54;97732.13;;;14.23;100.00
2785;BME280;57944;48.722;9.316;2023-05-10T10:02:28;97736.16;;;14.42;100.00
2785;BME280;57944;48.722;9.316;2023-05-10T10:05:00;97737.22;;;14.77;100.00
2785;BME280;57944;48.722;9.316;2023-05-10T10:07:31;97738.66;;;15.36;100.00
2785;BME280;57944;48.722;9.316;2023-05-10T10:10:05;97729.09;;;16.40;100.00
2785;BME280;57944;48.722;9.316;2023-05-10T10:12:39;97737.78;;;16.89;100.00
2785;BME280;57944;48.722;9.316;2023-05-10T10:15:11;97740.31;;;17.55;100.00
2785;BME280;57944;48.722;9.316;2023-05-10T10:17:43;97742.09;;;18.41;100.00
2785;BME280;57944;48.722;9.316;2023-05-10T10:20:13;97740.88;;;18.96;100.00
2785;BME280;57944;48.722;9.316;2023-05-10T10:22:44;97736.75;;;18.95;100.00
2785;BME280;57944;48.722;9.316;2023-05-10T10:25:17;97730.47;;;19.49;100.00
2785;BME280;57944;48.722;9.316;2023-05-10T10:27:59;97729.09;;;21.00;98.15
2785;BME280;57944;48.722;9.316;2023-05-10T10:30:37;97719.44;;;22.00;89.76
2785;BME280;57944;48.722;9.316;2023-05-10T10:33:33;97725.09;;;21.73;79.87
2785;BME280;57944;48.722;9.316;2023-05-10T10:36:06;97733.31;;;21.46;79.70
2785;BME280;57944;48.722;9.316;2023-05-10T10:38:54;97727.94;;;20.57;79.73
2785;BME280;57944;48.722;9.316;2023-05-10T10:41:30;97726.91;;;20.37;78.73
2785;BME280;57944;48.722;9.316;2023-05-10T10:44:22;97720.19;;;20.31;89.30
2785;BME280;57944;48.722;9.316;2023-05-10T10:47:04;97715.75;;;20.52;78.27
2785;BME280;57944;48.722;9.316;2023-05-10T10:49:44;97717.34;;;20.07;83.45
2785;BME280;57944;48.722;9.316;2023-05-10T10:52:26;97719.59;;;19.47;92.14
2785;BME280;57944;48.722;9.316;2023-05-10T10:54:59;97718.78;;;18.26;100.00
2785;BME280;57944;48.722;9.316;2023-05-10T10:57:43;97718.78;;;18.26;100.00
2785;BME280;57944;48.722;9.316;2023-05-10T11:00:25;97720.72;;;18.08;100.00
2785;BME280;57944;48.722;9.316;2023-05-10T11:02:59;97714.88;;;18.66;96.87
2785;BME280;57944;48.722;9.316;2023-05-10T11:05:40;97712.00;;;19.10;91.45
2785;BME280;57944;48.722;9.316;2023-05-10T11:08:13;97722.47;;;18.83;93.33
2785;BME280;57944;48.722;9.316;2023-05-10T11:11:01;97715.59;;;18.14;90.73
2785;BME280;57944;48.722;9.316;2023-05-10T11:13:38;97722.88;;;17.90;97.45
2785;BME280;57944;48.722;9.316;2023-05-10T11:16:17;97722.41;;;17.43;99.20
2785;BME280;57944;48.722;9.316;2023-05-10T11:18:59;97724.72;;;16.96;97.86
2785;BME280;57944;48.722;9.316;2023-05-10T11:21:30;97733.44;;;16.56;100.00
2785;BME280;57944;48.722;9.316;2023-05-10T11:24:01;97732.13;;;16.03;100.00
2785;BME280;57944;48.722;9.316;2023-05-10T11:26:34;97739.63;;;15.76;100.00
2785;BME280;57944;48.722;9.316;2023-05-10T11:29:07;97742.00;;;15.77;100.00
2785;BME280;57944;48.722;9.316;2023-05-10T11:31:42;97732.19;;;15.62;100.00
2785;BME280;57944;48.722;9.316;2023-05-10T11:34:22;97739.34;;;15.60;100.00
2785;BME280;57944;48.722;9.316;2023-05-10T11:36:54;97745.16;;;15.56;100.00
2785;BME280;57944;48.722;9.316;2023-05-10T11:39:26;97742.69;;;15.61;100.00
2785;BME280;57944;48.722;9.316;2023-05-10T11:41:57;97748.09;;;16.05;100.00
2785;BME280;57944;48.722;9.316;2023-05-10T11:44:32;97743.44;;;16.36;100.00
2785;BME280;57944;48.722;9.316;2023-05-10T11:47:02;97750.28;;;16.81;96.31
2785;BME280;57944;48.722;9.316;2023-05-10T11:49:32;97750.03;;;16.48;87.11
2785;BME280;57944;48.722;9.316;2023-05-10T11:52:05;97763.06;;;16.08;94.98
2785;BME280;57944;48.722;9.316;2023-05-10T11:54:44;97767.28;;;16.14;93.60
2785;BME280;57944;48.722;9.316;2023-05-10T11:57:15;97768.00;;;15.81;95.90
2785;BME280;57944;48.722;9.316;2023-05-10T11:59:47;97777.38;;;14.83;100.00
2785;BME280;57944;48.722;9.316;2023-05-10T12:02:22;97778.22;;;13.99;100.00
2785;BME280;57944;48.722;9.316;2023-05-10T12:04:52;97788.47;;;13.51;100.00
2785;BME280;57944;48.722;9.316;2023-05-10T12:07:25;97787.13;;;13.48;100.00
2785;BME280;57944;48.722;9.316;2023-05-10T12:10:03;97790.34;;;13.44;100.00
2785;BME280;57944;48.722;9.316;2023-05-10T12:12:40;97794.84;;;13.30;100.00
2785;BME280;57944;48.722;9.316;2023-05-10T12:15:18;97795.91;;;13.40;100.00
2785;BME280;57944;48.722;9.316;2023-05-10T12:17:49;97798.38;;;13.66;100.00
2785;BME280;57944;48.722;9.316;2023-05-10T12:20:21;97805.41;;;14.00;100.00
2785;BME280;57944;48.722;9.316;2023-05-10T12:22:54;97795.75;;;13.84;100.00
2785;BME280;57944;48.722;9.316;2023-05-10T12:25:30;97803.28;;;13.97;100.00
2785;BME280;57944;48.722;9.316;2023-05-10T12:28:03;97798.66;;;14.18;100.00
2785;BME280;57944;48.722;9.316;2023-05-10T12:30:37;97800.72;;;14.39;100.00
2785;BME280;57944;48.722;9.316;2023-05-10T12:33:08;97802.00;;;14.72;100.00
2785;BME280;57944;48.722;9.316;2023-05-10T12:35:46;97808.41;;;15.45;100.00
2785;BME280;57944;48.722;9.316;2023-05-10T12:38:25;97807.91;;;16.00;100.00
2785;BME280;57944;48.722;9.316;2023-05-10T12:40:57;97806.31;;;16.28;100.00
2785;BME280;57944;48.722;9.316;2023-05-10T12:43:27;97807.78;;;17.08;100.00
2785;BME280;57944;48.722;9.316;2023-05-10T12:46:04;97803.00;;;17.83;100.00
2785;BME280;57944;48.722;9.316;2023-05-10T12:48:34;97804.72;;;18.31;100.00
2785;BME280;57944;48.722;9.316;2023-05-10T12:51:05;97798.97;;;18.57;97.69
2785;BME280;57944;48.722;9.316;2023-05-10T12:53:36;97802.88;;;18.59;94.78
2785;BME280;57944;48.722;9.316;2023-05-10T12:56:10;97805.41;;;18.22;94.13
2785;BME280;57944;48.722;9.316;2023-05-10T12:58:40;97804.84;;;18.15;97.25
2785;BME280;57944;48.722;9.316;2023-05-10T13:01:17;97805.28;;;18.06;100.00
2785;BME280;57944;48.722;9.316;2023-05-10T13:03:47;97807.91;;;17.18;100.00
2785;BME280;57944;48.722;9.316;2023-05-10T13:06:17;97801.28;;;16.50;100.00
2785;BME280;57944;48.722;9.316;2023-05-10T13:08:47;97805.56;;;15.99;100.00
2785;BME280;57944;48.722;9.316;2023-05-10T13:11:17;97808.28;;;15.52;100.00
2785;BME280;57944;48.722;9.316;2023-05-10T13:13:48;97805.47;;;15.13;100.00
2785;BME280;57944;48.722;9.316;2023-05-10T13:16:21;97797.88;;;14.94;100.00
2785;BME280;57944;48.722;9.316;2023-05-10T13:18:51;97799.13;;;14.80;100.00
2785;BME280;57944;48.722;9.316;2023-05-10T13:21:21;97794.53;;;14.70;100.00
2785;BME280;57944;48.722;9.316;2023-05-10T13:23:51;97798.34;;;14.80;100.00
2785;BME280;57944;48.722;9.316;2023-05-10T13:26:21;97800.66;;;15.05;100.00
2785;BME280;57944;48.722;9.316;2023-05-10T13:28:52;97792.78;;;15.47;100.00
2785;BME280;57944;48.722;9.316;2023-05-10T13:31:25;97789.47;;;16.03;100.00